Time,TemperatureF,DewpointF,PressureIn,WindDirection,WindDirectionDegrees,WindSpeedMPH,WindSpeedGustMPH,Humidity,HourlyPrecipIn,Conditions,Clouds,dailyrainin,SolarRadiationWatts/m^2,SoftwareType,DateUTC
2013-02-18 00:04:00,70.3,-99.9,30.02,SE,145,2.0,7.0,0,0.00,,,0.02,0,weatherlink.com 1.10,2013-02-18 04:04:00,
2013-02-18 00:19:00,70.2,-99.9,30.02,SE,139,3.0,7.0,0,0.00,,,0.02,0,weatherlink.com 1.10,2013-02-18 04:19:00,
2013-02-18 00:35:00,70.2,-99.9,30.02,SSE,150,0.0,3.0,0,0.00,,,0.02,0,weatherlink.com 1.10,2013-02-18 04:35:00,
2013-02-18 00:49:00,69.8,-99.9,30.02,SSE,150,0.0,2.0,0,0.00,,,0.02,0,weatherlink.com 1.10,2013-02-18 04:49:00,
2013-02-18 01:04:00,69.4,-99.9,30.02,SSE,150,0.0,1.0,0,0.00,,,0.02,0,weatherlink.com 1.10,2013-02-18 05:04:00,
2013-02-18 01:19:00,69.4,-99.9,30.01,SSE,150,1.0,3.0,0,0.00,,,0.02,0,weatherlink.com 1.10,2013-02-18 05:19:00,
2013-02-18 01:35:00,69.9,-99.9,30.01,SE,140,2.0,4.0,0,0.00,,,0.02,0,weatherlink.com 1.10,2013-02-18 05:35:00,
2013-02-18 01:50:00,69.9,-99.9,30.01,SE,140,2.0,3.0,0,0.00,,,0.02,0,weatherlink.com 1.10,2013-02-18 05:50:00,
2013-02-18 02:05:00,70.1,-99.9,30.00,SSE,155,0.0,5.0,0,0.00,,,0.02,0,weatherlink.com 1.10,2013-02-18 06:05:00,
2013-02-18 02:20:00,69.9,-99.9,30.00,ESE,109,0.0,6.0,0,0.00,,,0.02,0,weatherlink.com 1.10,2013-02-18 06:20:00,
2013-02-18 02:35:00,69.4,-99.9,30.00,SSE,157,0.0,4.0,0,0.00,,,0.02,0,weatherlink.com 1.10,2013-02-18 06:35:00,
2013-02-18 02:50:00,69.4,-99.9,30.00,SSE,157,1.0,3.0,0,0.00,,,0.02,0,weatherlink.com 1.10,2013-02-18 06:50:00,
2013-02-18 03:05:00,69.0,-99.9,29.99,SE,134,1.0,2.0,0,0.00,,,0.02,0,weatherlink.com 1.10,2013-02-18 07:05:00,
2013-02-18 03:20:00,68.4,-99.9,29.99,SE,134,0.0,2.0,0,0.00,,,0.02,0,weatherlink.com 1.10,2013-02-18 07:20:00,
2013-02-18 03:35:00,69.1,-99.9,29.99,SE,134,2.0,2.0,0,0.00,,,0.02,0,weatherlink.com 1.10,2013-02-18 07:35:00,
2013-02-18 03:51:00,69.1,-99.9,29.99,SE,134,0.0,2.0,0,0.00,,,0.02,0,weatherlink.com 1.10,2013-02-18 07:51:00,
2013-02-18 04:05:00,68.4,-99.9,30.00,SE,134,0.0,1.0,0,0.00,,,0.02,0,weatherlink.com 1.10,2013-02-18 08:05:00,
2013-02-18 04:21:00,68.2,-99.9,30.00,SE,134,0.0,0.0,0,0.00,,,0.02,0,weatherlink.com 1.10,2013-02-18 08:21:00,
2013-02-18 04:35:00,68.7,-99.9,30.00,SE,134,0.0,1.0,0,0.00,,,0.02,0,weatherlink.com 1.10,2013-02-18 08:35:00,
2013-02-18 04:50:00,68.8,-99.9,30.00,SE,134,0.0,0.0,0,0.00,,,0.02,0,weatherlink.com 1.10,2013-02-18 08:50:00,
2013-02-18 05:06:00,68.3,-99.9,30.01,SE,134,1.0,3.0,0,0.00,,,0.02,0,weatherlink.com 1.10,2013-02-18 09:06:00,
2013-02-18 05:21:00,68.2,-99.9,30.01,SE,134,0.0,3.0,0,0.00,,,0.02,0,weatherlink.com 1.10,2013-02-18 09:21:00,
2013-02-18 05:36:00,68.2,-99.9,30.02,SE,134,0.0,2.0,0,0.00,,,0.02,0,weatherlink.com 1.10,2013-02-18 09:36:00,
2013-02-18 05:51:00,68.3,-99.9,30.02,SE,134,0.0,3.0,0,0.00,,,0.02,0,weatherlink.com 1.10,2013-02-18 09:51:00,
2013-02-18 06:06:00,67.5,-99.9,30.03,SE,134,0.0,2.0,0,0.00,,,0.02,0,weatherlink.com 1.10,2013-02-18 10:06:00,
2013-02-18 06:21:00,68.0,-99.9,30.03,SE,134,0.0,0.0,0,0.00,,,0.02,0,weatherlink.com 1.10,2013-02-18 10:21:00,
2013-02-18 06:36:00,68.0,-99.9,30.04,SE,134,0.0,1.0,0,0.00,,,0.02,0,weatherlink.com 1.10,2013-02-18 10:36:00,
2013-02-18 06:51:00,67.9,-99.9,30.04,SE,134,1.0,2.0,0,0.00,,,0.02,5,weatherlink.com 1.10,2013-02-18 10:51:00,
2013-02-18 07:06:00,67.6,-99.9,30.05,SE,134,0.0,2.0,0,0.00,,,0.02,12,weatherlink.com 1.10,2013-02-18 11:06:00,
2013-02-18 07:21:00,67.5,-99.9,30.05,North,5,1.0,2.0,0,0.00,,,0.02,21,weatherlink.com 1.10,2013-02-18 11:21:00,
2013-02-18 07:37:00,67.4,-99.9,30.06,North,5,0.0,2.0,0,0.00,,,0.02,53,weatherlink.com 1.10,2013-02-18 11:37:00,
2013-02-18 07:51:00,68.5,-99.9,30.06,North,5,0.0,2.0,0,0.00,,,0.02,70,weatherlink.com 1.10,2013-02-18 11:51:00,
2013-02-18 08:06:00,69.4,-99.9,30.06,North,5,0.0,2.0,0,0.00,,,0.00,118,weatherlink.com 1.10,2013-02-18 12:06:00,
2013-02-18 08:22:00,70.3,-99.9,30.07,North,5,0.0,1.0,0,0.00,,,0.00,135,weatherlink.com 1.10,2013-02-18 12:22:00,
2013-02-18 08:37:00,70.4,-99.9,30.07,North,5,0.0,2.0,0,0.00,,,0.00,178,weatherlink.com 1.10,2013-02-18 12:37:00,
2013-02-18 08:52:00,70.3,-99.9,30.08,ENE,61,1.0,3.0,0,0.00,,,0.00,216,weatherlink.com 1.10,2013-02-18 12:52:00,
2013-02-18 09:07:00,70.6,-99.9,30.09,ENE,61,0.0,2.0,0,0.00,,,0.00,190,weatherlink.com 1.10,2013-02-18 13:07:00,
2013-02-18 09:22:00,71.5,-99.9,30.09,ENE,61,1.0,2.0,0,0.00,,,0.00,338,weatherlink.com 1.10,2013-02-18 13:22:00,
2013-02-18 09:37:00,72.2,-99.9,30.09,WNW,289,2.0,4.0,0,0.00,,,0.00,320,weatherlink.com 1.10,2013-02-18 13:37:00,
2013-02-18 09:52:00,73.0,-99.9,30.09,WNW,289,0.0,2.0,0,0.00,,,0.00,540,weatherlink.com 1.10,2013-02-18 13:52:00,
2013-02-18 10:07:00,74.1,-99.9,30.10,WNW,289,0.0,2.0,0,0.00,,,0.00,332,weatherlink.com 1.10,2013-02-18 14:07:00,
2013-02-18 10:22:00,77.5,-99.9,30.09,NNE,23,0.0,3.0,0,0.00,,,0.00,413,weatherlink.com 1.10,2013-02-18 14:22:00,
2013-02-18 10:37:00,77.2,-99.9,30.09,NE,53,0.0,3.0,0,0.00,,,0.00,441,weatherlink.com 1.10,2013-02-18 14:37:00,
2013-02-18 10:53:00,78.2,-99.9,30.09,NE,35,1.0,4.0,0,0.00,,,0.00,425,weatherlink.com 1.10,2013-02-18 14:53:00,
2013-02-18 11:07:00,78.4,-99.9,30.09,ESE,105,0.0,5.0,0,0.00,,,0.00,366,weatherlink.com 1.10,2013-02-18 15:07:00,
2013-02-18 11:22:00,78.4,-99.9,30.08,NNE,22,0.0,4.0,0,0.00,,,0.00,304,weatherlink.com 1.10,2013-02-18 15:22:00,
2013-02-18 11:37:00,77.8,-99.9,30.08,NNE,21,0.0,4.0,0,0.00,,,0.00,350,weatherlink.com 1.10,2013-02-18 15:37:00,
2013-02-18 11:55:00,79.0,2.0,30.07,NE,51,1.0,6.0,5,0.00,,,0.00,190,weatherlink.com 1.10,2013-02-18 15:55:00,
2013-02-18 12:13:00,76.8,-99.9,30.06,North,360,1.0,8.0,0,0.00,,,0.00,397,weatherlink.com 1.10,2013-02-18 16:13:00,
2013-02-18 12:24:00,77.8,-99.9,30.06,ENE,57,2.0,7.0,0,0.00,,,0.00,1179,weatherlink.com 1.10,2013-02-18 16:24:00,
2013-02-18 12:38:00,80.5,7.0,30.05,East,93,3.0,6.0,6,0.00,,,0.00,348,weatherlink.com 1.10,2013-02-18 16:38:00,
2013-02-18 12:52:00,78.3,-99.9,30.05,North,350,5.0,10.0,0,0.00,,,0.00,243,weatherlink.com 1.10,2013-02-18 16:52:00,
2013-02-18 13:08:00,77.9,-99.9,30.04,North,5,0.0,10.0,0,0.00,,,0.00,276,weatherlink.com 1.10,2013-02-18 17:08:00,
2013-02-18 13:22:00,77.8,1.0,30.04,NNE,15,1.0,11.0,5,0.00,,,0.00,413,weatherlink.com 1.10,2013-02-18 17:22:00,
2013-02-18 13:38:00,78.1,25.0,30.03,North,360,3.0,14.0,14,0.00,,,0.00,315,weatherlink.com 1.10,2013-02-18 17:38:00,
2013-02-18 13:54:00,79.5,47.0,30.02,NW,304,2.0,15.0,32,0.00,,,0.00,441,weatherlink.com 1.10,2013-02-18 17:54:00,
2013-02-18 14:08:00,79.3,48.0,30.01,NNE,19,8.0,14.0,33,0.00,,,0.00,267,weatherlink.com 1.10,2013-02-18 18:08:00,
2013-02-18 14:23:00,78.9,47.0,30.01,NE,49,8.0,14.0,33,0.00,,,0.00,239,weatherlink.com 1.10,2013-02-18 18:23:00,
2013-02-18 14:39:00,78.6,43.0,30.00,North,360,11.0,21.0,28,0.00,,,0.00,167,weatherlink.com 1.10,2013-02-18 18:39:00,
2013-02-18 14:53:00,77.7,23.0,30.00,ENE,58,9.0,16.0,13,0.00,,,0.00,81,weatherlink.com 1.10,2013-02-18 18:53:00,
2013-02-18 15:09:00,76.7,1.0,30.01,ENE,72,2.0,15.0,5,0.00,,,0.00,65,weatherlink.com 1.10,2013-02-18 19:09:00,
2013-02-18 15:24:00,75.8,-99.9,30.01,North,355,8.0,13.0,0,0.00,,,0.00,72,weatherlink.com 1.10,2013-02-18 19:24:00,
2013-02-18 15:39:00,76.1,-99.9,30.00,ENE,67,3.0,13.0,0,0.00,,,0.00,123,weatherlink.com 1.10,2013-02-18 19:39:00,
2013-02-18 15:54:00,76.6,-99.9,30.00,North,5,3.0,13.0,0,0.00,,,0.00,288,weatherlink.com 1.10,2013-02-18 19:54:00,
2013-02-18 16:09:00,76.8,-99.9,30.00,ENE,67,9.0,14.0,0,0.00,,,0.00,105,weatherlink.com 1.10,2013-02-18 20:09:00,
2013-02-18 16:24:00,76.2,-99.9,30.00,NE,37,4.0,12.0,0,0.00,,,0.00,51,weatherlink.com 1.10,2013-02-18 20:24:00,
2013-02-18 16:39:00,75.8,-99.9,30.00,ENE,75,2.0,8.0,0,0.00,,,0.00,56,weatherlink.com 1.10,2013-02-18 20:39:00,
2013-02-18 16:54:00,75.2,-99.9,30.01,ENE,63,1.0,7.0,0,0.00,,,0.00,84,weatherlink.com 1.10,2013-02-18 20:54:00,
2013-02-18 17:09:00,75.2,-99.9,30.01,ENE,63,0.0,3.0,0,0.00,,,0.00,100,weatherlink.com 1.10,2013-02-18 21:09:00,
2013-02-18 17:25:00,75.9,15.0,30.02,ENE,74,0.0,4.0,10,0.00,,,0.00,111,weatherlink.com 1.10,2013-02-18 21:25:00,
2013-02-18 17:39:00,75.6,-99.9,30.02,East,96,2.0,10.0,0,0.00,,,0.00,62,weatherlink.com 1.10,2013-02-18 21:39:00,
2013-02-18 17:55:00,74.5,-99.9,30.02,SSE,147,0.0,5.0,0,0.00,,,0.00,47,weatherlink.com 1.10,2013-02-18 21:55:00,
2013-02-18 18:09:00,74.2,-99.9,30.02,ESE,106,0.0,3.0,0,0.00,,,0.00,16,weatherlink.com 1.10,2013-02-18 22:09:00,
2013-02-18 18:25:00,73.6,-99.9,30.03,East,94,1.0,7.0,0,0.00,,,0.00,5,weatherlink.com 1.10,2013-02-18 22:25:00,
2013-02-18 18:40:00,73.0,-99.9,30.03,ESE,102,0.0,3.0,0,0.00,,,0.00,0,weatherlink.com 1.10,2013-02-18 22:40:00,
2013-02-18 18:55:00,72.1,-99.9,30.02,East,93,5.0,7.0,0,0.00,,,0.00,0,weatherlink.com 1.10,2013-02-18 22:55:00,
2013-02-18 19:10:00,71.7,-99.9,30.02,East,80,2.0,6.0,0,0.00,,,0.00,0,weatherlink.com 1.10,2013-02-18 23:10:00,
2013-02-18 19:25:00,71.6,-99.9,30.03,ESE,106,2.0,7.0,0,0.00,,,0.00,0,weatherlink.com 1.10,2013-02-18 23:25:00,
2013-02-18 19:40:00,71.6,-99.9,30.04,East,86,0.0,5.0,0,0.00,,,0.00,0,weatherlink.com 1.10,2013-02-18 23:40:00,
2013-02-18 19:55:00,71.5,-99.9,30.04,East,86,0.0,2.0,0,0.00,,,0.00,0,weatherlink.com 1.10,2013-02-18 23:55:00,
2013-02-18 20:10:00,71.4,-99.9,30.04,ESE,111,0.0,2.0,0,0.00,,,0.00,0,weatherlink.com 1.10,2013-02-19 00:10:00,
2013-02-18 20:25:00,71.3,-99.9,30.04,ESE,111,0.0,1.0,0,0.00,,,0.00,0,weatherlink.com 1.10,2013-02-19 00:25:00,
2013-02-18 20:40:00,71.4,-99.9,30.04,ESE,119,0.0,2.0,0,0.00,,,0.00,0,weatherlink.com 1.10,2013-02-19 00:40:00,
2013-02-18 20:55:00,71.5,-99.9,30.05,SE,128,0.0,3.0,0,0.00,,,0.00,0,weatherlink.com 1.10,2013-02-19 00:55:00,
2013-02-18 21:10:00,71.5,-99.9,30.05,ESE,103,1.0,4.0,0,0.00,,,0.00,0,weatherlink.com 1.10,2013-02-19 01:10:00,
2013-02-18 21:26:00,71.4,-99.9,30.05,ENE,74,1.0,4.0,0,0.00,,,0.00,0,weatherlink.com 1.10,2013-02-19 01:26:00,
2013-02-18 21:40:00,71.3,-99.9,30.05,SSE,149,3.0,6.0,0,0.00,,,0.00,0,weatherlink.com 1.10,2013-02-19 01:40:00,
2013-02-18 21:56:00,71.5,-99.9,30.06,East,89,1.0,7.0,0,0.00,,,0.00,0,weatherlink.com 1.10,2013-02-19 01:56:00,
2013-02-18 22:11:00,71.3,-99.9,30.06,ESE,107,0.0,6.0,0,0.00,,,0.00,0,weatherlink.com 1.10,2013-02-19 02:11:00,
2013-02-18 22:26:00,71.3,-99.9,30.06,East,98,3.0,7.0,0,0.00,,,0.00,0,weatherlink.com 1.10,2013-02-19 02:26:00,
2013-02-18 22:41:00,71.2,-99.9,30.07,ESE,119,0.0,4.0,0,0.00,,,0.00,0,weatherlink.com 1.10,2013-02-19 02:41:00,
2013-02-18 22:56:00,71.2,-99.9,30.07,SSE,165,0.0,4.0,0,0.00,,,0.00,0,weatherlink.com 1.10,2013-02-19 02:56:00,
2013-02-18 23:11:00,71.2,-99.9,30.07,SSE,167,0.0,5.0,0,0.00,,,0.00,0,weatherlink.com 1.10,2013-02-19 03:11:00,
2013-02-18 23:26:00,70.9,-99.9,30.06,SE,127,0.0,3.0,0,0.00,,,0.00,0,weatherlink.com 1.10,2013-02-19 03:26:00,
2013-02-18 23:41:00,70.6,-99.9,30.06,East,96,0.0,6.0,0,0.00,,,0.00,0,weatherlink.com 1.10,2013-02-19 03:41:00,
2013-02-18 23:56:00,70.7,-99.9,30.06,ESE,108,0.0,4.0,0,0.00,,,0.00,0,weatherlink.com 1.10,2013-02-19 03:56:00,